sensor_id;sensor_type;location;lat;lon;timestamp;P1;durP1;ratioP1;P2;durP2;ratioP2
69183;SDS011;56291;53.960;27.550;2023-09-19T05:13:48;11.70;;;6.07;;
69183;SDS011;56291;53.960;27.550;2023-09-19T05:16:17;11.20;;;6.00;;
69183;SDS011;56291;53.960;27.550;2023-09-19T05:18:44;11.65;;;6.32;;
69183;SDS011;56291;53.960;27.550;2023-09-19T05:21:10;8.85;;;5.78;;
69183;SDS011;56291;53.960;27.550;2023-09-19T05:23:39;11.70;;;6.05;;
69183;SDS011;56291;53.960;27.550;2023-09-19T05:26:06;8.45;;;5.88;;
69183;SDS011;56291;53.960;27.550;2023-09-19T05:28:32;10.05;;;6.15;;
69183;SDS011;56291;53.960;27.550;2023-09-19T05:31:00;10.40;;;6.35;;
69183;SDS011;56291;53.960;27.550;2023-09-19T05:33:29;10.40;;;6.57;;
69183;SDS011;56291;53.960;27.550;2023-09-19T05:35:56;14.00;;;6.75;;
69183;SDS011;56291;53.960;27.550;2023-09-19T05:38:23;10.13;;;5.75;;
69183;SDS011;56291;53.960;27.550;2023-09-19T05:40:52;14.73;;;6.25;;
69183;SDS011;56291;53.960;27.550;2023-09-19T05:43:19;9.25;;;6.10;;
69183;SDS011;56291;53.960;27.550;2023-09-19T05:45:45;8.60;;;5.47;;
69183;SDS011;56291;53.960;27.550;2023-09-19T05:48:11;10.65;;;6.25;;
69183;SDS011;56291;53.960;27.550;2023-09-19T05:50:40;9.90;;;6.53;;
69183;SDS011;56291;53.960;27.550;2023-09-19T05:53:19;8.75;;;5.95;;
69183;SDS011;56291;53.960;27.550;2023-09-19T05:55:54;11.25;;;6.13;;
69183;SDS011;56291;53.960;27.550;2023-09-19T05:58:26;8.88;;;5.95;;
69183;SDS011;56291;53.960;27.550;2023-09-19T06:00:52;13.23;;;6.43;;
69183;SDS011;56291;53.960;27.550;2023-09-19T06:03:18;10.40;;;6.10;;
69183;SDS011;56291;53.960;27.550;2023-09-19T06:05:48;10.65;;;6.03;;
69183;SDS011;56291;53.960;27.550;2023-09-19T06:08:16;10.02;;;5.97;;
69183;SDS011;56291;53.960;27.550;2023-09-19T06:10:42;8.80;;;5.85;;
69183;SDS011;56291;53.960;27.550;2023-09-19T06:13:08;9.18;;;5.43;;
69183;SDS011;56291;53.960;27.550;2023-09-19T06:15:35;11.25;;;5.70;;
69183;SDS011;56291;53.960;27.550;2023-09-19T06:18:02;9.85;;;5.50;;
69183;SDS011;56291;53.960;27.550;2023-09-19T06:20:30;8.63;;;5.63;;
69183;SDS011;56291;53.960;27.550;2023-09-19T06:22:58;13.73;;;6.10;;
69183;SDS011;56291;53.960;27.550;2023-09-19T06:25:24;11.98;;;6.35;;
69183;SDS011;56291;53.960;27.550;2023-09-19T06:27:53;8.63;;;5.88;;
69183;SDS011;56291;53.960;27.550;2023-09-19T06:30:20;8.07;;;5.97;;
69183;SDS011;56291;53.960;27.550;2023-09-19T06:32:57;10.52;;;5.80;;
69183;SDS011;56291;53.960;27.550;2023-09-19T06:35:24;11.40;;;5.90;;
69183;SDS011;56291;53.960;27.550;2023-09-19T06:38:12;10.85;;;5.50;;
69183;SDS011;56291;53.960;27.550;2023-09-19T06:41:02;10.05;;;6.00;;
69183;SDS011;56291;53.960;27.550;2023-09-19T06:43:32;10.32;;;5.53;;
69183;SDS011;56291;53.960;27.550;2023-09-19T06:45:59;13.20;;;6.15;;
69183;SDS011;56291;53.960;27.550;2023-09-19T06:48:29;8.30;;;5.72;;
69183;SDS011;56291;53.960;27.550;2023-09-19T06:50:56;9.88;;;5.53;;
69183;SDS011;56291;53.960;27.550;2023-09-19T06:53:23;10.30;;;5.93;;
69183;SDS011;56291;53.960;27.550;2023-09-19T06:55:50;10.00;;;6.15;;
69183;SDS011;56291;53.960;27.550;2023-09-19T06:58:16;11.90;;;6.22;;
69183;SDS011;56291;53.960;27.550;2023-09-19T07:00:42;11.00;;;6.30;;
69183;SDS011;56291;53.960;27.550;2023-09-19T07:03:09;11.68;;;6.07;;
69183;SDS011;56291;53.960;27.550;2023-09-19T07:05:39;10.93;;;5.53;;
69183;SDS011;56291;53.960;27.550;2023-09-19T07:08:06;10.27;;;5.93;;
69183;SDS011;56291;53.960;27.550;2023-09-19T07:10:33;11.85;;;5.80;;
69183;SDS011;56291;53.960;27.550;2023-09-19T07:15:34;8.95;;;5.90;;
69183;SDS011;56291;53.960;27.550;2023-09-19T07:18:03;13.98;;;6.32;;
69183;SDS011;56291;53.960;27.550;2023-09-19T07:20:31;12.05;;;7.10;;
69183;SDS011;56291;53.960;27.550;2023-09-19T07:22:59;10.80;;;6.45;;
69183;SDS011;56291;53.960;27.550;2023-09-19T07:25:26;13.15;;;5.70;;
69183;SDS011;56291;53.960;27.550;2023-09-19T07:27:54;12.50;;;6.10;;
69183;SDS011;56291;53.960;27.550;2023-09-19T07:30:22;13.27;;;6.05;;
69183;SDS011;56291;53.960;27.550;2023-09-19T07:32:48;11.60;;;6.05;;
69183;SDS011;56291;53.960;27.550;2023-09-19T07:35:14;10.68;;;5.70;;
69183;SDS011;56291;53.960;27.550;2023-09-19T07:37:41;9.40;;;5.43;;
69183;SDS011;56291;53.960;27.550;2023-09-19T07:40:07;11.93;;;6.15;;
69183;SDS011;56291;53.960;27.550;2023-09-19T07:42:34;12.15;;;5.55;;
69183;SDS011;56291;53.960;27.550;2023-09-19T07:45:04;11.70;;;5.18;;
69183;SDS011;56291;53.960;27.550;2023-09-19T07:47:30;10.27;;;5.45;;
69183;SDS011;56291;53.960;27.550;2023-09-19T07:49:57;10.25;;;5.88;;
69183;SDS011;56291;53.960;27.550;2023-09-19T07:52:27;10.68;;;5.80;;
69183;SDS011;56291;53.960;27.550;2023-09-19T07:54:54;11.15;;;5.85;;
69183;SDS011;56291;53.960;27.550;2023-09-19T07:57:22;8.32;;;5.35;;
69183;SDS011;56291;53.960;27.550;2023-09-19T07:59:51;6.68;;;5.13;;
69183;SDS011;56291;53.960;27.550;2023-09-19T08:02:19;11.45;;;5.68;;
69183;SDS011;56291;53.960;27.550;2023-09-19T08:04:46;13.80;;;5.70;;
69183;SDS011;56291;53.960;27.550;2023-09-19T08:07:12;12.43;;;6.43;;
69183;SDS011;56291;53.960;27.550;2023-09-19T08:09:39;6.90;;;4.82;;
69183;SDS011;56291;53.960;27.550;2023-09-19T08:12:08;14.40;;;5.97;;
69183;SDS011;56291;53.960;27.550;2023-09-19T08:14:37;8.20;;;5.68;;
69183;SDS011;56291;53.960;27.550;2023-09-19T08:17:09;8.65;;;5.30;;
69183;SDS011;56291;53.960;27.550;2023-09-19T08:19:35;6.85;;;5.50;;
69183;SDS011;56291;53.960;27.550;2023-09-19T08:22:01;11.85;;;5.57;;
69183;SDS011;56291;53.960;27.550;2023-09-19T08:24:28;9.10;;;5.75;;
69183;SDS011;56291;53.960;27.550;2023-09-19T08:26:55;13.32;;;4.70;;
69183;SDS011;56291;53.960;27.550;2023-09-19T08:29:22;14.57;;;5.22;;
69183;SDS011;56291;53.960;27.550;2023-09-19T08:31:55;8.15;;;5.43;;
69183;SDS011;56291;53.960;27.550;2023-09-19T08:34:22;11.02;;;5.05;;
69183;SDS011;56291;53.960;27.550;2023-09-19T08:36:50;9.77;;;5.20;;
69183;SDS011;56291;53.960;27.550;2023-09-19T08:39:18;9.73;;;5.07;;
69183;SDS011;56291;53.960;27.550;2023-09-19T08:41:44;7.95;;;4.95;;
69183;SDS011;56291;53.960;27.550;2023-09-19T08:44:10;9.23;;;5.32;;
69183;SDS011;56291;53.960;27.550;2023-09-19T08:46:36;6.47;;;4.90;;
69183;SDS011;56291;53.960;27.550;2023-09-19T08:49:11;13.90;;;5.18;;
69183;SDS011;56291;53.960;27.550;2023-09-19T08:51:53;9.95;;;4.80;;
69183;SDS011;56291;53.960;27.550;2023-09-19T08:54:32;8.38;;;4.90;;
69183;SDS011;56291;53.960;27.550;2023-09-19T08:57:05;6.90;;;4.95;;
69183;SDS011;56291;53.960;27.550;2023-09-19T08:59:46;7.50;;;4.78;;
69183;SDS011;56291;53.960;27.550;2023-09-19T09:02:15;12.93;;;4.93;;
69183;SDS011;56291;53.960;27.550;2023-09-19T09:04:44;11.00;;;4.95;;
69183;SDS011;56291;53.960;27.550;2023-09-19T09:07:12;7.13;;;4.75;;
69183;SDS011;56291;53.960;27.550;2023-09-19T09:09:39;9.50;;;4.80;;
69183;SDS011;56291;53.960;27.550;2023-09-19T09:12:12;8.73;;;5.32;;
69183;SDS011;56291;53.960;27.550;2023-09-19T09:14:42;13.50;;;4.88;;
69183;SDS011;56291;53.960;27.550;2023-09-19T09:17:13;8.07;;;4.80;;
69183;SDS011;56291;53.960;27.550;2023-09-19T09:19:40;9.30;;;4.60;;
69183;SDS011;56291;53.960;27.550;2023-09-19T09:22:11;9.98;;;4.85;;
69183;SDS011;56291;53.960;27.550;2023-09-19T09:24:37;7.90;;;4.20;;
69183;SDS011;56291;53.960;27.550;2023-09-19T09:27:26;7.25;;;4.40;;
69183;SDS011;56291;53.960;27.550;2023-09-19T09:29:52;8.07;;;4.47;;
69183;SDS011;56291;53.960;27.550;2023-09-19T09:32:29;7.18;;;4.28;;
69183;SDS011;56291;53.960;27.550;2023-09-19T09:34:59;7.90;;;4.05;;
69183;SDS011;56291;53.960;27.550;2023-09-19T09:37:27;7.78;;;4.35;;
69183;SDS011;56291;53.960;27.550;2023-09-19T09:39:56;11.18;;;4.72;;
69183;SDS011;56291;53.960;27.550;2023-09-19T09:42:30;9.00;;;4.82;;
69183;SDS011;56291;53.960;27.550;2023-09-19T09:45:15;6.65;;;4.40;;
69183;SDS011;56291;53.960;27.550;2023-09-19T09:48:01;7.15;;;4.30;;
69183;SDS011;56291;53.960;27.550;2023-09-19T09:50:39;7.50;;;4.20;;
69183;SDS011;56291;53.960;27.550;2023-09-19T09:53:24;5.82;;;4.38;;
69183;SDS011;56291;53.960;27.550;2023-09-19T09:56:04;7.88;;;4.43;;
69183;SDS011;56291;53.960;27.550;2023-09-19T09:58:37;8.80;;;4.18;;
69183;SDS011;56291;53.960;27.550;2023-09-19T10:01:14;7.57;;;4.05;;
69183;SDS011;56291;53.960;27.550;2023-09-19T10:03:42;7.95;;;4.22;;
69183;SDS011;56291;53.960;27.550;2023-09-19T10:06:11;8.63;;;4.60;;
69183;SDS011;56291;53.960;27.550;2023-09-19T10:09:05;9.27;;;4.90;;
69183;SDS011;56291;53.960;27.550;2023-09-19T10:11:42;9.13;;;4.43;;
69183;SDS011;56291;53.960;27.550;2023-09-19T10:14:10;6.43;;;4.40;;
69183;SDS011;56291;53.960;27.550;2023-09-19T10:16:40;6.35;;;4.22;;
69183;SDS011;56291;53.960;27.550;2023-09-19T10:19:27;8.75;;;4.55;;
69183;SDS011;56291;53.960;27.550;2023-09-19T10:22:01;7.22;;;4.60;;
69183;SDS011;56291;53.960;27.550;2023-09-19T10:24:30;6.78;;;4.28;;
69183;SDS011;56291;53.960;27.550;2023-09-19T10:26:59;7.65;;;3.92;;
69183;SDS011;56291;53.960;27.550;2023-09-19T10:29:25;7.20;;;3.97;;
69183;SDS011;56291;53.960;27.550;2023-09-19T10:31:56;8.30;;;4.30;;
69183;SDS011;56291;53.960;27.550;2023-09-19T10:34:25;9.35;;;4.22;;
69183;SDS011;56291;53.960;27.550;2023-09-19T10:36:51;7.72;;;4.30;;
69183;SDS011;56291;53.960;27.550;2023-09-19T10:39:19;7.40;;;4.05;;
69183;SDS011;56291;53.960;27.550;2023-09-19T10:41:53;10.45;;;4.20;;
69183;SDS011;56291;53.960;27.550;2023-09-19T10:44:24;6.85;;;4.10;;
69183;SDS011;56291;53.960;27.550;2023-09-19T10:46:51;6.35;;;3.90;;
69183;SDS011;56291;53.960;27.550;2023-09-19T10:49:21;10.32;;;4.22;;
69183;SDS011;56291;53.960;27.550;2023-09-19T10:51:50;13.25;;;4.05;;
69183;SDS011;56291;53.960;27.550;2023-09-19T10:54:31;9.38;;;4.15;;
69183;SDS011;56291;53.960;27.550;2023-09-19T10:57:02;8.63;;;4.03;;
69183;SDS011;56291;53.960;27.550;2023-09-19T10:59:30;6.25;;;4.25;;
69183;SDS011;56291;53.960;27.550;2023-09-19T11:02:00;6.15;;;4.10;;
69183;SDS011;56291;53.960;27.550;2023-09-19T11:04:44;8.05;;;4.63;;
69183;SDS011;56291;53.960;27.550;2023-09-19T11:07:13;5.55;;;3.90;;
69183;SDS011;56291;53.960;27.550;2023-09-19T11:09:47;9.27;;;4.30;;
69183;SDS011;56291;53.960;27.550;2023-09-19T11:15:02;8.90;;;3.95;;
69183;SDS011;56291;53.960;27.550;2023-09-19T11:17:38;7.55;;;3.80;;
69183;SDS011;56291;53.960;27.550;2023-09-19T11:30:34;5.50;;;3.95;;
69183;SDS011;56291;53.960;27.550;2023-09-19T11:33:16;8.57;;;3.80;;
69183;SDS011;56291;53.960;27.550;2023-09-19T11:46:32;5.82;;;3.92;;
69183;SDS011;56291;53.960;27.550;2023-09-19T11:49:05;11.00;;;3.53;;
69183;SDS011;56291;53.960;27.550;2023-09-19T11:51:41;7.15;;;3.83;;
69183;SDS011;56291;53.960;27.550;2023-09-19T11:54:13;5.20;;;3.58;;
69183;SDS011;56291;53.960;27.550;2023-09-19T11:56:43;4.10;;;3.53;;
69183;SDS011;56291;53.960;27.550;2023-09-19T11:59:10;6.35;;;3.97;;
69183;SDS011;56291;53.960;27.550;2023-09-19T12:01:50;7.97;;;4.18;;
69183;SDS011;56291;53.960;27.550;2023-09-19T12:04:39;12.13;;;3.92;;
69183;SDS011;56291;53.960;27.550;2023-09-19T12:07:08;8.50;;;3.83;;
69183;SDS011;56291;53.960;27.550;2023-09-19T12:09:40;6.90;;;4.20;;
69183;SDS011;56291;53.960;27.550;2023-09-19T12:12:09;6.35;;;3.83;;
69183;SDS011;56291;53.960;27.550;2023-09-19T12:14:47;6.93;;;3.83;;
69183;SDS011;56291;53.960;27.550;2023-09-19T12:17:14;5.20;;;3.72;;
69183;SDS011;56291;53.960;27.550;2023-09-19T12:19:49;7.93;;;3.97;;
69183;SDS011;56291;53.960;27.550;2023-09-19T12:22:19;8.23;;;3.97;;
69183;SDS011;56291;53.960;27.550;2023-09-19T12:24:46;5.85;;;3.92;;
69183;SDS011;56291;53.960;27.550;2023-09-19T12:27:13;8.60;;;3.90;;
69183;SDS011;56291;53.960;27.550;2023-09-19T12:29:43;9.88;;;3.88;;
69183;SDS011;56291;53.960;27.550;2023-09-19T12:32:10;6.43;;;3.88;;
69183;SDS011;56291;53.960;27.550;2023-09-19T12:34:37;7.72;;;3.40;;
69183;SDS011;56291;53.960;27.550;2023-09-19T12:39:51;7.97;;;3.80;;
69183;SDS011;56291;53.960;27.550;2023-09-19T12:44:48;7.30;;;3.45;;
69183;SDS011;56291;53.960;27.550;2023-09-19T12:47:22;7.32;;;3.88;;
69183;SDS011;56291;53.960;27.550;2023-09-19T12:52:52;7.47;;;4.20;;
69183;SDS011;56291;53.960;27.550;2023-09-19T12:58:13;4.90;;;3.88;;
69183;SDS011;56291;53.960;27.550;2023-09-19T13:00:44;6.40;;;3.90;;
69183;SDS011;56291;53.960;27.550;2023-09-19T13:05:53;8.57;;;3.97;;
69183;SDS011;56291;53.960;27.550;2023-09-19T13:08:35;9.52;;;3.83;;
69183;SDS011;56291;53.960;27.550;2023-09-19T13:14:13;9.40;;;4.10;;
69183;SDS011;56291;53.960;27.550;2023-09-19T13:16:53;6.88;;;3.85;;
69183;SDS011;56291;53.960;27.550;2023-09-19T13:25:08;7.78;;;3.85;;
69183;SDS011;56291;53.960;27.550;2023-09-19T13:27:40;6.55;;;4.13;;
69183;SDS011;56291;53.960;27.550;2023-09-19T13:30:07;6.72;;;3.78;;
69183;SDS011;56291;53.960;27.550;2023-09-19T13:32:33;6.25;;;4.20;;
69183;SDS011;56291;53.960;27.550;2023-09-19T13:35:00;7.60;;;4.05;;
69183;SDS011;56291;53.960;27.550;2023-09-19T13:37:26;9.63;;;4.03;;
69183;SDS011;56291;53.960;27.550;2023-09-19T13:39:52;5.40;;;4.47;;
69183;SDS011;56291;53.960;27.550;2023-09-19T13:42:18;7.75;;;4.25;;
69183;SDS011;56291;53.960;27.550;2023-09-19T13:44:46;7.32;;;3.97;;
69183;SDS011;56291;53.960;27.550;2023-09-19T13:47:13;9.40;;;4.40;;
69183;SDS011;56291;53.960;27.550;2023-09-19T13:49:40;6.95;;;3.88;;
69183;SDS011;56291;53.960;27.550;2023-09-19T13:52:08;5.82;;;4.22;;
69183;SDS011;56291;53.960;27.550;2023-09-19T13:54:34;7.68;;;4.68;;
69183;SDS011;56291;53.960;27.550;2023-09-19T13:57:00;12.73;;;4.47;;
69183;SDS011;56291;53.960;27.550;2023-09-19T13:59:26;9.80;;;4.30;;
69183;SDS011;56291;53.960;27.550;2023-09-19T14:01:53;9.82;;;4.20;;
69183;SDS011;56291;53.960;27.550;2023-09-19T14:04:20;6.55;;;4.20;;
69183;SDS011;56291;53.960;27.550;2023-09-19T14:06:47;9.38;;;4.53;;
69183;SDS011;56291;53.960;27.550;2023-09-19T14:09:13;6.55;;;4.13;;
69183;SDS011;56291;53.960;27.550;2023-09-19T14:11:45;6.43;;;4.38;;
69183;SDS011;56291;53.960;27.550;2023-09-19T14:14:13;8.23;;;4.63;;
69183;SDS011;56291;53.960;27.550;2023-09-19T14:16:40;5.45;;;4.25;;
69183;SDS011;56291;53.960;27.550;2023-09-19T14:19:07;13.48;;;4.30;;
69183;SDS011;56291;53.960;27.550;2023-09-19T14:21:33;5.40;;;4.10;;
69183;SDS011;56291;53.960;27.550;2023-09-19T14:24:01;6.50;;;4.70;;
69183;SDS011;56291;53.960;27.550;2023-09-19T14:26:28;6.47;;;4.32;;
69183;SDS011;56291;53.960;27.550;2023-09-19T14:28:54;11.60;;;4.30;;
69183;SDS011;56291;53.960;27.550;2023-09-19T14:31:20;6.95;;;4.47;;
69183;SDS011;56291;53.960;27.550;2023-09-19T14:33:52;6.78;;;4.10;;
69183;SDS011;56291;53.960;27.550;2023-09-19T14:36:20;9.00;;;4.80;;
69183;SDS011;56291;53.960;27.550;2023-09-19T14:38:47;11.88;;;5.15;;
69183;SDS011;56291;53.960;27.550;2023-09-19T14:41:18;6.20;;;4.07;;
69183;SDS011;56291;53.960;27.550;2023-09-19T14:43:45;8.77;;;4.60;;
69183;SDS011;56291;53.960;27.550;2023-09-19T14:46:11;9.50;;;4.38;;
69183;SDS011;56291;53.960;27.550;2023-09-19T14:48:39;6.18;;;4.10;;
69183;SDS011;56291;53.960;27.550;2023-09-19T14:51:06;9.20;;;4.47;;
69183;SDS011;56291;53.960;27.550;2023-09-19T14:53:37;8.93;;;4.90;;
69183;SDS011;56291;53.960;27.550;2023-09-19T14:56:12;9.70;;;4.40;;
69183;SDS011;56291;53.960;27.550;2023-09-19T14:58:43;8.25;;;4.57;;
69183;SDS011;56291;53.960;27.550;2023-09-19T15:01:12;11.25;;;4.93;;
69183;SDS011;56291;53.960;27.550;2023-09-19T15:03:39;7.25;;;4.43;;
69183;SDS011;56291;53.960;27.550;2023-09-19T15:06:07;6.05;;;4.32;;
69183;SDS011;56291;53.960;27.550;2023-09-19T15:08:37;6.90;;;4.60;;
69183;SDS011;56291;53.960;27.550;2023-09-19T15:11:04;9.27;;;4.55;;
69183;SDS011;56291;53.960;27.550;2023-09-19T15:13:33;8.38;;;4.78;;
69183;SDS011;56291;53.960;27.550;2023-09-19T15:16:01;8.45;;;4.50;;
69183;SDS011;56291;53.960;27.550;2023-09-19T15:18:28;7.60;;;4.63;;
69183;SDS011;56291;53.960;27.550;2023-09-19T15:20:56;6.57;;;4.55;;
69183;SDS011;56291;53.960;27.550;2023-09-19T15:23:22;7.95;;;4.68;;
69183;SDS011;56291;53.960;27.550;2023-09-19T15:25:48;8.35;;;5.07;;
69183;SDS011;56291;53.960;27.550;2023-09-19T15:28:15;11.07;;;5.18;;
69183;SDS011;56291;53.960;27.550;2023-09-19T15:30:41;7.32;;;4.70;;
69183;SDS011;56291;53.960;27.550;2023-09-19T15:33:08;9.40;;;4.70;;
69183;SDS011;56291;53.960;27.550;2023-09-19T15:35:34;7.65;;;4.72;;
69183;SDS011;56291;53.960;27.550;2023-09-19T15:38:02;9.75;;;4.90;;
69183;SDS011;56291;53.960;27.550;2023-09-19T15:40:29;8.63;;;4.45;;
69183;SDS011;56291;53.960;27.550;2023-09-19T15:42:55;13.30;;;5.50;;
69183;SDS011;56291;53.960;27.550;2023-09-19T15:45:21;8.60;;;5.20;;
69183;SDS011;56291;53.960;27.550;2023-09-19T15:47:48;10.25;;;5.10;;
69183;SDS011;56291;53.960;27.550;2023-09-19T15:50:15;10.55;;;5.10;;
69183;SDS011;56291;53.960;27.550;2023-09-19T15:52:41;7.88;;;5.50;;
69183;SDS011;56291;53.960;27.550;2023-09-19T15:55:08;7.55;;;5.10;;
69183;SDS011;56291;53.960;27.550;2023-09-19T15:57:38;12.60;;;5.63;;
69183;SDS011;56291;53.960;27.550;2023-09-19T16:00:05;8.85;;;5.05;;
69183;SDS011;56291;53.960;27.550;2023-09-19T16:02:39;10.25;;;5.07;;
69183;SDS011;56291;53.960;27.550;2023-09-19T16:05:05;8.82;;;5.20;;
69183;SDS011;56291;53.960;27.550;2023-09-19T16:07:31;11.43;;;5.63;;
69183;SDS011;56291;53.960;27.550;2023-09-19T16:10:01;7.95;;;5.43;;
69183;SDS011;56291;53.960;27.550;2023-09-19T16:12:28;10.68;;;5.28;;
69183;SDS011;56291;53.960;27.550;2023-09-19T16:14:55;7.78;;;5.03;;
69183;SDS011;56291;53.960;27.550;2023-09-19T16:17:22;7.82;;;5.90;;
69183;SDS011;56291;53.960;27.550;2023-09-19T16:19:48;10.50;;;5.35;;
69183;SDS011;56291;53.960;27.550;2023-09-19T16:22:14;11.27;;;5.20;;
69183;SDS011;56291;53.960;27.550;2023-09-19T16:24:40;10.43;;;5.40;;
69183;SDS011;56291;53.960;27.550;2023-09-19T16:27:08;8.48;;;5.28;;
69183;SDS011;56291;53.960;27.550;2023-09-19T16:29:34;12.77;;;5.43;;
69183;SDS011;56291;53.960;27.550;2023-09-19T16:32:00;9.57;;;5.50;;
69183;SDS011;56291;53.960;27.550;2023-09-19T16:34:27;11.48;;;5.88;;
69183;SDS011;56291;53.960;27.550;2023-09-19T16:36:53;10.73;;;5.40;;
69183;SDS011;56291;53.960;27.550;2023-09-19T16:39:19;9.23;;;5.72;;
69183;SDS011;56291;53.960;27.550;2023-09-19T16:41:47;11.73;;;5.47;;
69183;SDS011;56291;53.960;27.550;2023-09-19T16:44:14;14.30;;;5.68;;
69183;SDS011;56291;53.960;27.550;2023-09-19T16:46:40;9.60;;;5.90;;
69183;SDS011;56291;53.960;27.550;2023-09-19T16:49:09;11.60;;;6.20;;
69183;SDS011;56291;53.960;27.550;2023-09-19T16:51:37;9.52;;;5.30;;
69183;SDS011;56291;53.960;27.550;2023-09-19T16:54:05;10.20;;;5.50;;
69183;SDS011;56291;53.960;27.550;2023-09-19T16:56:31;9.05;;;5.90;;
69183;SDS011;56291;53.960;27.550;2023-09-19T16:59:01;12.48;;;5.82;;
69183;SDS011;56291;53.960;27.550;2023-09-19T17:01:29;14.13;;;5.53;;
69183;SDS011;56291;53.960;27.550;2023-09-19T17:03:57;10.15;;;5.30;;
69183;SDS011;56291;53.960;27.550;2023-09-19T17:06:24;8.63;;;5.57;;
69183;SDS011;56291;53.960;27.550;2023-09-19T17:08:51;8.95;;;5.35;;
69183;SDS011;56291;53.960;27.550;2023-09-19T17:11:17;9.02;;;5.60;;
69183;SDS011;56291;53.960;27.550;2023-09-19T17:13:45;8.93;;;5.43;;
69183;SDS011;56291;53.960;27.550;2023-09-19T17:16:13;10.05;;;5.90;;
69183;SDS011;56291;53.960;27.550;2023-09-19T17:18:45;11.43;;;6.15;;
69183;SDS011;56291;53.960;27.550;2023-09-19T17:21:14;7.97;;;6.05;;
69183;SDS011;56291;53.960;27.550;2023-09-19T17:23:41;12.27;;;5.82;;
69183;SDS011;56291;53.960;27.550;2023-09-19T17:26:11;6.47;;;5.38;;
69183;SDS011;56291;53.960;27.550;2023-09-19T17:28:48;10.75;;;5.55;;
69183;SDS011;56291;53.960;27.550;2023-09-19T17:31:16;7.72;;;5.68;;
69183;SDS011;56291;53.960;27.550;2023-09-19T17:33:44;11.95;;;5.88;;
69183;SDS011;56291;53.960;27.550;2023-09-19T17:36:13;14.07;;;6.18;;
69183;SDS011;56291;53.960;27.550;2023-09-19T17:38:43;10.35;;;5.55;;
69183;SDS011;56291;53.960;27.550;2023-09-19T17:41:11;10.57;;;5.68;;
69183;SDS011;56291;53.960;27.550;2023-09-19T17:43:38;8.18;;;5.47;;
69183;SDS011;56291;53.960;27.550;2023-09-19T17:46:05;10.90;;;5.68;;
69183;SDS011;56291;53.960;27.550;2023-09-19T17:48:35;7.78;;;5.53;;
69183;SDS011;56291;53.960;27.550;2023-09-19T17:51:02;7.57;;;5.80;;
69183;SDS011;56291;53.960;27.550;2023-09-19T17:53:29;8.45;;;5.75;;
69183;SDS011;56291;53.960;27.550;2023-09-19T17:55:55;9.23;;;5.60;;
69183;SDS011;56291;53.960;27.550;2023-09-19T17:58:22;11.85;;;6.10;;
69183;SDS011;56291;53.960;27.550;2023-09-19T18:00:48;9.65;;;5.95;;
69183;SDS011;56291;53.960;27.550;2023-09-19T18:03:14;7.63;;;5.55;;
69183;SDS011;56291;53.960;27.550;2023-09-19T18:05:44;8.80;;;5.57;;
69183;SDS011;56291;53.960;27.550;2023-09-19T18:08:10;9.65;;;6.50;;
69183;SDS011;56291;53.960;27.550;2023-09-19T18:10:39;10.20;;;6.00;;
69183;SDS011;56291;53.960;27.550;2023-09-19T18:13:05;9.43;;;5.95;;
69183;SDS011;56291;53.960;27.550;2023-09-19T18:15:35;13.60;;;6.30;;
69183;SDS011;56291;53.960;27.550;2023-09-19T18:18:05;8.82;;;6.00;;
69183;SDS011;56291;53.960;27.550;2023-09-19T18:20:37;9.57;;;5.22;;
69183;SDS011;56291;53.960;27.550;2023-09-19T18:23:06;8.27;;;5.40;;
69183;SDS011;56291;53.960;27.550;2023-09-19T18:25:33;9.52;;;6.10;;
69183;SDS011;56291;53.960;27.550;2023-09-19T18:28:00;10.07;;;5.68;;
69183;SDS011;56291;53.960;27.550;2023-09-19T18:30:29;9.93;;;5.90;;
69183;SDS011;56291;53.960;27.550;2023-09-19T18:32:56;9.95;;;5.90;;
69183;SDS011;56291;53.960;27.550;2023-09-19T18:35:24;7.55;;;5.72;;
69183;SDS011;56291;53.960;27.550;2023-09-19T18:37:53;8.30;;;5.93;;
